Time;durP1;ratioP1;P1;durP2;ratioP2;P2;SDS_P1;SDS_P2;PMS_P1;PMS_P2;Temp;Humidity;BMP_temperature;BMP_pressure;BME280_temperature;BME280_humidity;BME280_pressure;Samples;Min_cycle;Max_cycle;Signal;HPM_P1;HPM_P2
2021/10/27 00:01:09;;;;;;;80.92;38.25;;;;;;;-1.90;100.00;102380.09;1751448;80;21226;-87
2021/10/27 00:03:36;;;;;;;87.57;41.48;;;;;;;-1.95;100.00;102382.62;1751873;81;21049;-86
2021/10/27 00:06:03;;;;;;;83.75;42.48;;;;;;;-1.97;100.00;102383.05;1751090;81;21112;-86
2021/10/27 00:08:31;;;;;;;89.05;43.17;;;;;;;-1.98;100.00;102391.56;1751856;80;21520;-86
2021/10/27 00:10:58;;;;;;;95.42;45.35;;;;;;;-1.97;100.00;102388.56;1751847;81;20998;-87
2021/10/27 00:13:26;;;;;;;116.67;46.68;;;;;;;-1.97;100.00;102383.46;1762575;79;21771;-86
2021/10/27 00:15:54;;;;;;;103.62;46.95;;;;;;;-1.97;100.00;102383.05;1748040;79;37905;-87
2021/10/27 00:18:21;;;;;;;89.58;42.80;;;;;;;-1.98;100.00;102383.90;1708457;84;21022;-87
2021/10/27 00:20:48;;;;;;;73.10;37.10;;;;;;;-2.01;100.00;102380.03;1733117;82;21014;-87
2021/10/27 00:23:15;;;;;;;54.20;28.80;;;;;;;-1.99;100.00;102386.02;1713750;82;21710;-86
2021/10/27 00:25:42;;;;;;;51.85;24.87;;;;;;;-1.98;100.00;102381.75;1743257;82;21104;-87
2021/10/27 00:28:09;;;;;;;46.25;24.23;;;;;;;-1.96;100.00;102373.24;1713220;82;21145;-87
2021/10/27 00:30:37;;;;;;;54.55;29.02;;;;;;;-1.93;100.00;102371.16;1723776;81;21450;-87
2021/10/27 00:33:04;;;;;;;74.42;33.38;;;;;;;-1.91;100.00;102370.72;1657170;83;21662;-87
2021/10/27 00:35:32;;;;;;;70.85;33.48;;;;;;;-1.91;100.00;102371.59;1710388;83;21035;-88
2021/10/27 00:37:59;;;;;;;68.25;34.60;;;;;;;-1.88;100.00;102373.73;1709807;83;21525;-88
2021/10/27 00:40:26;;;;;;;81.80;36.30;;;;;;;-1.86;100.00;102365.23;1708697;82;21125;-87
2021/10/27 00:42:53;;;;;;;87.12;36.75;;;;;;;-1.83;100.00;102360.55;1748884;82;21084;-88
2021/10/27 00:45:23;;;;;;;77.90;34.18;;;;;;;-1.82;100.00;102355.88;1688786;83;21077;-88
2021/10/27 00:47:50;;;;;;;78.22;35.00;;;;;;;-1.81;100.00;102356.31;1718644;83;21216;-88
2021/10/27 00:50:19;;;;;;;82.82;36.65;;;;;;;-1.82;100.00;102354.61;1718553;83;21157;-88
2021/10/27 00:52:46;;;;;;;85.77;38.05;;;;;;;-1.85;100.00;102353.30;1687577;83;21547;-88
2021/10/27 00:55:13;;;;;;;85.83;37.03;;;;;;;-1.88;100.00;102357.14;1688030;83;21109;-89
2021/10/27 00:57:43;;;;;;;80.80;37.90;;;;;;;-1.91;100.00;102357.55;1687599;83;21081;-88
2021/10/27 01:00:11;;;;;;;89.35;40.17;;;;;;;-1.92;100.00;102353.69;1688153;83;21030;-88
2021/10/27 01:02:39;;;;;;;87.70;38.63;;;;;;;-1.98;100.00;102358.36;1688115;83;21721;-88
2021/10/27 01:05:07;;;;;;;86.47;39.73;;;;;;;-2.10;100.00;102359.15;1718726;82;21038;-88
2021/10/27 01:07:35;;;;;;;95.90;41.53;;;;;;;-2.17;100.00;102360.37;1718690;82;21030;-88
2021/10/27 01:10:05;;;;;;;90.03;41.20;;;;;;;-2.22;100.00;102353.95;1718849;82;21080;-88
2021/10/27 01:12:33;;;;;;;90.03;40.38;;;;;;;-2.26;100.00;102349.26;1718642;82;21093;-88
2021/10/27 01:15:00;;;;;;;91.12;41.30;;;;;;;-2.28;100.00;102347.55;1687477;83;21765;-88
2021/10/27 01:17:27;;;;;;;95.00;43.13;;;;;;;-2.31;100.00;102347.11;1718520;83;21015;-89
2021/10/27 01:19:58;;;;;;;93.03;42.20;;;;;;;-2.41;100.00;102340.23;1687986;83;21042;-89
2021/10/27 01:22:28;;;;;;;90.95;42.67;;;;;;;-2.48;100.00;102344.42;1732315;82;21053;-88
2021/10/27 01:24:58;;;;;;;73.15;37.78;;;;;;;-2.54;100.00;102341.43;1684628;82;21104;-88
2021/10/27 01:27:26;;;;;;;75.60;38.02;;;;;;;-2.58;100.00;102348.61;1737065;82;21207;-88
2021/10/27 01:29:55;;;;;;;76.35;38.90;;;;;;;-2.59;100.00;102351.16;1736588;81;21053;-90
2021/10/27 01:32:37;;;;;;;82.62;40.10;;;;;;;-2.64;100.00;102349.84;1736815;82;21160;-89
2021/10/27 01:35:01;;;;;;;78.35;37.70;;;;;;;-2.69;100.00;102351.52;1707026;82;21535;-88
2021/10/27 01:37:29;;;;;;;84.17;39.92;;;;;;;-2.78;100.00;102349.73;1707360;82;21965;-88
2021/10/27 01:39:56;;;;;;;90.10;42.38;;;;;;;-2.83;100.00;102344.15;1736135;81;21145;-90
2021/10/27 01:42:23;;;;;;;94.30;41.53;;;;;;;-2.88;100.00;102344.98;1736424;81;21064;-89
2021/10/27 01:44:50;;;;;;;90.25;40.95;;;;;;;-2.88;100.00;102345.38;1707605;82;21040;-89
2021/10/27 01:47:18;;;;;;;85.95;42.35;;;;;;;-2.88;100.00;102337.33;1683900;82;21044;-90
2021/10/27 01:49:45;;;;;;;86.45;42.30;;;;;;;-2.87;100.00;102335.22;1736673;81;21529;-89
2021/10/27 01:52:12;;;;;;;89.70;42.85;;;;;;;-2.86;100.00;102333.51;1736466;81;21156;-89
2021/10/27 01:54:40;;;;;;;89.28;40.20;;;;;;;-2.82;100.00;102335.26;1736828;81;21048;-89
2021/10/27 01:57:09;;;;;;;88.85;42.33;;;;;;;-2.78;100.00;102331.04;1736589;82;21088;-90
2021/10/27 01:59:36;;;;;;;83.82;42.40;;;;;;;-2.74;100.00;102322.16;1736432;81;21044;-90
2021/10/27 02:02:04;;;;;;;88.95;39.88;;;;;;;-2.71;100.00;102319.61;1707399;82;21063;-91
2021/10/27 02:04:32;;;;;;;79.92;39.23;;;;;;;-2.71;100.00;102314.94;1735786;81;21162;-90
2021/10/27 02:07:00;;;;;;;72.60;37.63;;;;;;;-2.78;100.00;102311.48;1736403;81;21024;-90
2021/10/27 02:09:29;;;;;;;78.52;39.15;;;;;;;-2.80;100.00;102316.14;1736295;81;21519;-90
2021/10/27 02:11:56;;;;;;;79.82;39.80;;;;;;;-2.81;100.00;102309.33;1736615;81;20986;-90
2021/10/27 02:14:25;;;;;;;82.72;40.40;;;;;;;-2.81;100.00;102316.58;1735903;82;21055;-89
2021/10/27 02:16:53;;;;;;;81.97;40.58;;;;;;;-2.82;100.00;102312.31;1736336;81;21142;-89
2021/10/27 02:19:20;;;;;;;77.58;39.55;;;;;;;-2.87;100.00;102319.05;1736441;81;21010;-90
2021/10/27 02:21:47;;;;;;;82.57;40.48;;;;;;;-2.91;100.00;102323.70;1734843;82;21029;-89
2021/10/27 02:24:14;;;;;;;89.00;43.05;;;;;;;-3.04;100.00;102318.91;1765412;81;21075;-90
2021/10/27 02:26:42;;;;;;;81.12;38.92;;;;;;;-3.14;100.00;102323.08;1732720;82;20997;-90
2021/10/27 02:29:09;;;;;;;87.62;41.83;;;;;;;-3.24;100.00;102323.39;1765527;81;21522;-90
2021/10/27 02:31:36;;;;;;;88.58;43.42;;;;;;;-3.33;100.00;102332.24;1732370;82;21014;-90
2021/10/27 02:34:04;;;;;;;90.70;41.50;;;;;;;-3.40;100.00;102338.95;1765580;81;21607;-90
2021/10/27 02:36:31;;;;;;;87.53;44.25;;;;;;;-3.45;100.00;102329.55;1702607;82;21002;-91
2021/10/27 02:39:03;;;;;;;98.47;45.80;;;;;;;-3.50;100.00;102325.67;1773865;79;21033;-90
2021/10/27 02:41:30;;;;;;;;;;;;;;;-3.53;100.00;102332.87;1755232;80;21097;-90
2021/10/27 02:43:57;;;;;;;86.17;40.98;;;;;;;-3.57;100.00;102330.27;1702869;80;20470;-90
2021/10/27 02:46:24;;;;;;;95.03;42.35;;;;;;;-3.63;100.00;102334.87;1779273;80;21049;-89
2021/10/27 02:48:52;;;;;;;76.07;38.23;;;;;;;-3.70;100.00;102329.27;1784089;79;21536;-89
2021/10/27 02:51:19;;;;;;;101.35;45.65;;;;;;;-3.76;100.00;102335.57;1732436;82;21048;-89
2021/10/27 02:53:46;;;;;;;107.35;47.85;;;;;;;-3.85;100.00;102342.69;1811312;79;21072;-89
2021/10/27 02:56:14;;;;;;;87.60;42.88;;;;;;;-3.94;100.00;102340.86;1770334;79;21108;-89
2021/10/27 02:58:42;;;;;;;102.30;43.55;;;;;;;-4.00;100.00;102340.78;1770231;79;21041;-89
2021/10/27 03:01:12;;;;;;;91.80;43.30;;;;;;;-4.06;100.00;102339.44;1811149;79;21551;-89
2021/10/27 03:03:39;;;;;;;93.78;44.67;;;;;;;-4.11;100.00;102338.10;1811406;79;21044;-89
2021/10/27 03:06:06;;;;;;;94.47;44.88;;;;;;;-4.14;100.00;102337.65;1811181;79;21726;-88
2021/10/27 03:08:33;;;;;;;95.07;43.30;;;;;;;-4.15;100.00;102341.02;1811212;79;21512;-89
2021/10/27 03:11:00;;;;;;;84.30;40.48;;;;;;;-4.17;100.00;102334.20;1801369;79;21520;-89
2021/10/27 03:13:28;;;;;;;94.75;42.48;;;;;;;-4.15;100.00;102339.75;1801735;79;21504;-90
2021/10/27 03:15:55;;;;;;;95.53;43.85;;;;;;;-4.14;100.00;102333.83;1811343;79;21484;-89
2021/10/27 03:18:22;;;;;;;102.65;47.80;;;;;;;-4.12;100.00;102331.30;1810784;79;20995;-90
2021/10/27 03:20:49;;;;;;;108.40;47.73;;;;;;;-4.11;100.00;102327.92;1803500;79;21056;-89
2021/10/27 03:23:17;;;;;;;111.40;53.70;;;;;;;-4.13;100.00;102327.04;1771658;79;21026;-90
2021/10/27 03:25:44;;;;;;;103.35;47.33;;;;;;;-4.14;100.00;102319.84;1718791;82;22091;-89
2021/10/27 03:28:11;;;;;;;116.08;50.95;;;;;;;-4.16;100.00;102322.77;1739462;82;21054;-88
2021/10/27 03:30:38;;;;;;;115.95;52.93;;;;;;;-4.17;100.00;102318.94;1738272;82;21492;-88
2021/10/27 03:33:05;;;;;;;115.32;50.28;;;;;;;-4.21;100.00;102317.17;1718384;82;21057;-89
2021/10/27 03:35:33;;;;;;;102.92;47.67;;;;;;;-4.30;100.00;102317.48;1733921;82;21074;-88
2021/10/27 03:38:00;;;;;;;131.07;48.58;;;;;;;-4.34;100.00;102314.87;1719510;82;21105;-88
2021/10/27 03:40:29;;;;;;;119.85;49.03;;;;;;;-4.40;100.00;102316.06;1718383;83;21046;-89
2021/10/27 03:42:56;;;;;;;94.07;41.23;;;;;;;-4.45;100.00;102310.48;1732056;82;21124;-89
2021/10/27 03:45:23;;;;;;;87.37;39.25;;;;;;;-4.46;100.00;102316.42;1753799;81;21160;-87
2021/10/27 03:47:50;;;;;;;111.68;43.68;;;;;;;-4.39;100.00;102313.96;1723725;83;22221;-91
2021/10/27 03:50:18;;;;;;;113.37;49.73;;;;;;;-3.91;100.00;102307.82;1753642;81;21081;-92
2021/10/27 03:52:45;;;;;;;105.37;49.38;;;;;;;-3.17;100.00;102306.08;1719946;82;20994;-86
2021/10/27 03:55:12;;;;;;;91.63;42.43;;;;;;;-3.01;100.00;102306.21;1723681;81;21193;-86
2021/10/27 03:57:39;;;;;;;93.47;45.80;;;;;;;-3.15;100.00;102305.20;1723806;81;21064;-86
2021/10/27 04:00:09;;;;;;;90.75;42.80;;;;;;;-3.33;100.00;102303.78;1723408;81;22268;-88
2021/10/27 04:02:41;;;;;;;100.27;46.18;;;;;;;-3.45;100.00;102307.90;1695779;81;21024;-91
2021/10/27 04:05:09;;;;;;;94.55;43.02;;;;;;;-3.52;100.00;102305.30;1709273;82;21112;-90
2021/10/27 04:07:37;;;;;;;97.20;42.88;;;;;;;-3.58;100.00;102303.95;1700258;83;21591;-84
2021/10/27 04:10:08;;;;;;;114.08;42.88;;;;;;;-3.40;100.00;102303.69;1719911;83;21013;-86
2021/10/27 04:12:36;;;;;;;;;;;;;;;-3.21;100.00;102304.32;1723139;82;21045;-86
2021/10/27 04:15:06;;;;;;;106.50;45.52;;;;;;;-2.54;100.00;102300.62;1750652;82;20293;-86
2021/10/27 04:17:34;;;;;;;98.22;46.77;;;;;;;-1.87;100.00;102298.80;1748331;81;21081;-86
2021/10/27 04:20:04;;;;;;;122.95;46.23;;;;;;;-1.81;100.00;102302.69;1747752;82;21148;-86
2021/10/27 04:22:33;;;;;;;108.95;47.95;;;;;;;-2.10;100.00;102311.05;1742814;82;21477;-87
2021/10/27 04:25:00;;;;;;;88.20;42.15;;;;;;;-2.40;100.00;102307.49;1734692;82;21050;-86
2021/10/27 04:27:28;;;;;;;86.70;42.30;;;;;;;-2.64;100.00;102305.21;1707336;83;21006;-86
2021/10/27 04:29:55;;;;;;;101.50;47.33;;;;;;;-2.81;100.00;102304.23;1717156;82;21610;-86
2021/10/27 04:32:23;;;;;;;100.45;48.10;;;;;;;-2.93;100.00;102301.16;1707914;82;21102;-86
2021/10/27 04:34:50;;;;;;;125.38;50.92;;;;;;;-3.04;100.00;102301.91;1705253;84;21064;-88
2021/10/27 04:37:18;;;;;;;105.03;50.25;;;;;;;-3.13;100.00;102301.86;1705462;84;21552;-85
2021/10/27 04:39:45;;;;;;;103.53;46.20;;;;;;;-3.26;100.00;102305.98;1685207;84;21020;-86
2021/10/27 04:42:13;;;;;;;90.40;44.50;;;;;;;-3.39;100.00;102309.23;1705285;84;21028;-86
2021/10/27 04:44:40;;;;;;;86.72;43.98;;;;;;;-3.49;100.00;102312.98;1693515;82;21209;-86
2021/10/27 04:47:07;;;;;;;80.50;39.75;;;;;;;-3.53;100.00;102314.20;1711431;82;21105;-85
2021/10/27 04:49:34;;;;;;;88.52;42.33;;;;;;;-3.58;100.00;102314.14;1705280;83;21057;-86
2021/10/27 04:52:02;;;;;;;92.00;42.65;;;;;;;-3.61;100.00;102319.19;1709135;82;21034;-86
2021/10/27 04:54:29;;;;;;;66.55;36.42;;;;;;;-3.68;100.00;102317.42;1685910;84;21117;-86
2021/10/27 04:56:56;;;;;;;82.97;39.15;;;;;;;-3.72;100.00;102322.02;1705403;84;21144;-86
2021/10/27 04:59:23;;;;;;;110.57;45.03;;;;;;;-3.71;100.00;102317.38;1705728;83;21132;-86
2021/10/27 05:01:50;;;;;;;93.25;39.27;;;;;;;-3.74;100.00;102311.83;1705753;83;21945;-87
2021/10/27 05:04:17;;;;;;;76.90;36.55;;;;;;;-3.79;100.00;102314.75;1705803;83;21591;-86
2021/10/27 05:06:44;;;;;;;86.00;40.92;;;;;;;-3.78;100.00;102311.37;1705712;84;21003;-86
2021/10/27 05:09:11;;;;;;;91.75;43.20;;;;;;;-3.73;100.00;102312.27;1706047;83;21916;-85
2021/10/27 05:11:38;;;;;;;85.20;41.83;;;;;;;-3.67;100.00;102320.41;1705526;83;21085;-87
2021/10/27 05:14:07;;;;;;;82.90;41.23;;;;;;;-3.65;100.00;102320.85;1705810;84;21559;-85
2021/10/27 05:16:34;;;;;;;79.35;39.78;;;;;;;-3.60;100.00;102318.77;1709796;82;21047;-85
2021/10/27 05:19:01;;;;;;;81.22;40.25;;;;;;;-3.58;100.00;102328.16;1699167;82;21090;-85
2021/10/27 05:21:29;;;;;;;87.40;41.70;;;;;;;-3.49;100.00;102325.72;1713812;82;21796;-84
2021/10/27 05:23:57;;;;;;;78.85;41.70;;;;;;;-3.40;100.00;102324.95;1727597;82;21591;-85
2021/10/27 05:26:24;;;;;;;75.15;41.60;;;;;;;-3.33;100.00;102324.59;1725090;82;20993;-85
2021/10/27 05:28:51;;;;;;;79.50;40.10;;;;;;;-3.25;100.00;102324.66;1702882;84;21507;-85
2021/10/27 05:31:18;;;;;;;101.42;37.93;;;;;;;-3.17;100.00;102323.91;1722467;81;21095;-85
2021/10/27 05:33:46;;;;;;;66.20;34.43;;;;;;;-3.06;100.00;102329.51;1718885;82;21183;-85
2021/10/27 05:36:14;;;;;;;64.45;31.87;;;;;;;-2.96;100.00;102321.11;1748886;82;20998;-85
2021/10/27 05:38:41;;;;;;;73.67;38.88;;;;;;;-2.81;100.00;102324.63;1717408;82;21104;-85
2021/10/27 05:41:08;;;;;;;65.17;34.25;;;;;;;-2.67;100.00;102320.48;1713033;82;21093;-85
2021/10/27 05:43:36;;;;;;;66.75;32.70;;;;;;;-2.59;100.00;102320.55;1718772;82;21051;-85
2021/10/27 05:46:04;;;;;;;62.85;30.50;;;;;;;-2.47;100.00;102326.16;1696984;83;21679;-86
2021/10/27 05:48:37;;;;;;;62.40;32.40;;;;;;;-2.28;100.00;102320.75;1726834;81;21046;-86
2021/10/27 06:00:06;;;;;;;72.37;40.48;;;;;;;-1.71;100.00;102329.94;1851500;75;28323;-85
2021/10/27 06:02:34;;;;;;;63.00;35.00;;;;;;;-1.61;100.00;102329.14;1850284;76;20980;-85
2021/10/27 06:05:02;;;;;;;60.58;31.68;;;;;;;-1.45;100.00;102327.91;1861021;76;21067;-86
2021/10/27 06:07:32;;;;;;;55.60;31.35;;;;;;;-1.30;100.00;102325.81;1844146;77;21055;-83
2021/10/27 06:09:59;;;;;;;76.17;34.05;;;;;;;-1.16;100.00;102322.85;1809945;77;20969;-85
2021/10/27 06:12:28;;;;;;;55.73;31.17;;;;;;;-0.94;100.00;102329.25;1767120;80;20974;-85
2021/10/27 06:14:55;;;;;;;54.38;33.30;;;;;;;-0.13;100.00;102324.04;1782530;79;21609;-85
2021/10/27 06:17:22;;;;;;;55.58;31.77;;;;;;;0.51;100.00;102317.80;1803497;78;21145;-86
2021/10/27 06:19:55;;;;;;;55.95;32.20;;;;;;;0.79;100.00;102315.05;1773077;79;21035;-85
2021/10/27 06:22:21;;;;;;;58.13;31.35;;;;;;;0.89;100.00;102312.84;1745684;79;21121;-85
2021/10/27 06:24:48;;;;;;;68.17;30.20;;;;;;;1.09;100.00;102311.41;1772841;79;22181;-86
2021/10/27 06:27:15;;;;;;;53.45;29.87;;;;;;;1.35;100.00;102306.48;1766045;79;21128;-87
2021/10/27 06:29:48;;;;;;;55.92;30.15;;;;;;;1.63;100.00;102304.08;1783104;79;21152;-86
2021/10/27 06:34:56;;;;;;;51.50;26.02;;;;;;;2.18;100.00;102303.84;1777526;79;21047;-85
2021/10/27 06:47:59;;;;;;;50.83;24.18;;;;;;;2.99;100.00;102297.96;1781964;79;21909;-86
2021/10/27 06:50:25;;;;;;;43.55;23.73;;;;;;;3.14;100.00;102285.28;1774112;79;21525;-85
2021/10/27 06:52:52;;;;;;;53.75;26.87;;;;;;;3.24;100.00;102283.84;1774254;79;21086;-86
2021/10/27 06:55:19;;;;;;;48.68;24.50;;;;;;;3.34;100.00;102285.35;1783260;79;21144;-86
2021/10/27 06:57:47;;;;;;;39.75;24.72;;;;;;;3.43;100.00;102282.61;1789151;79;21114;-84
2021/10/27 07:00:33;;;;;;;42.13;23.80;;;;;;;3.54;100.00;102282.41;1801536;79;21630;-85
2021/10/27 07:16:33;;;;;;;84.55;24.43;;;;;;;4.34;100.00;102248.98;1802598;78;21082;-84
2021/10/27 07:19:00;;;;;;;84.47;24.75;;;;;;;4.54;100.00;102247.23;1744233;78;21109;-85
2021/10/27 07:21:27;;;;;;;86.63;26.45;;;;;;;4.62;100.00;102239.30;1787353;78;21144;-85
2021/10/27 07:23:54;;;;;;;55.95;22.73;;;;;;;4.73;100.00;102234.73;1797828;78;21053;-87
2021/10/27 07:26:21;;;;;;;35.43;21.27;;;;;;;4.86;100.00;102229.25;1809408;78;21531;-85
2021/10/27 07:28:52;;;;;;;36.83;20.27;;;;;;;5.04;100.00;102221.50;1826617;78;21410;-84
2021/10/27 07:31:17;;;;;;;38.65;20.25;;;;;;;5.18;100.00;102212.94;1771234;79;21598;-86
2021/10/27 07:33:54;;;;;;;70.78;20.72;;;;;;;5.34;100.00;102215.94;1758282;80;21124;-84
2021/10/27 07:36:30;;;;;;;366.48;39.75;;;;;;;5.47;100.00;102213.86;1740504;81;21069;-84
2021/10/27 07:41:28;;;;;;;109.20;23.02;;;;;;;5.78;100.00;102212.14;1781951;80;21668;-84
2021/10/27 07:43:57;;;;;;;70.12;19.87;;;;;;;5.90;100.00;102208.34;1784508;80;21108;-85
2021/10/27 07:46:24;;;;;;;47.10;16.65;;;;;;;6.02;100.00;102203.28;1785133;80;21111;-84
2021/10/27 07:48:52;;;;;;;32.10;16.60;;;;;;;6.16;100.00;102208.88;1760101;80;21053;-83
2021/10/27 07:51:19;;;;;;;51.65;18.12;;;;;;;6.23;100.00;102205.20;1784948;80;21527;-83
2021/10/27 07:53:46;;;;;;;32.48;14.90;;;;;;;6.34;100.00;102197.09;1784277;80;21065;-83
2021/10/27 07:56:15;;;;;;;28.98;15.25;;;;;;;6.50;100.00;102196.16;1785520;79;21072;-90
2021/10/27 07:58:42;;;;;;;28.77;15.28;;;;;;;6.65;100.00;102190.08;1736198;80;21898;-86
2021/10/27 08:01:10;;;;;;;682.58;75.80;;;;;;;6.74;100.00;102180.25;1786740;80;21493;-87
2021/10/27 08:03:38;;;;;;;88.07;24.27;;;;;;;6.84;100.00;102177.35;1786893;80;21484;-87
2021/10/27 08:06:07;;;;;;;46.28;14.70;;;;;;;6.97;100.00;102167.41;1786829;80;21034;-86
2021/10/27 08:08:34;;;;;;;123.15;54.58;;;;;;;7.11;100.00;102163.88;1757787;80;21045;-88
2021/10/27 08:11:02;;;;;;;86.47;49.25;;;;;;;7.24;100.00;102167.74;1784964;80;21755;-86
2021/10/27 08:13:30;;;;;;;47.00;26.95;;;;;;;7.33;100.00;102161.83;1770305;80;21519;-88
2021/10/27 08:15:58;;;;;;;42.90;32.75;;;;;;;7.41;100.00;102145.55;1788886;79;21030;-86
2021/10/27 08:18:25;;;;;;;39.80;30.43;;;;;;;7.53;100.00;102151.55;1783921;79;20950;-85
2021/10/27 08:20:52;;;;;;;26.30;18.07;;;;;;;7.63;100.00;102153.80;1757529;80;21030;-87
2021/10/27 08:23:21;;;;;;;25.72;16.55;;;;;;;7.70;100.00;102153.49;1785996;80;21155;-86
2021/10/27 08:25:54;;;;;;;61.50;18.60;;;;;;;7.78;100.00;102151.91;1775413;80;21041;-87
2021/10/27 08:28:27;;;;;;;138.27;24.70;;;;;;;7.86;100.00;102149.87;1714733;81;21079;-85
2021/10/27 08:33:43;;;;;;;36.00;15.53;;;;;;;8.03;100.00;102144.47;1726025;81;21088;-87
2021/10/27 08:35:53;;;;;;;92.17;17.12;;;;;;;8.13;100.00;102144.94;1751264;81;21109;-87
2021/10/27 08:38:20;;;;;;;31.68;12.30;;;;;;;8.20;100.00;102137.28;1755823;81;21009;-87
2021/10/27 08:40:49;;;;;;;25.65;11.03;;;;;;;8.28;100.00;102131.33;1768871;80;21512;-88
2021/10/27 08:43:17;;;;;;;33.70;11.90;;;;;;;8.34;100.00;102128.47;1777117;80;20962;-85
2021/10/27 08:45:44;;;;;;;33.83;12.00;;;;;;;8.39;100.00;102129.58;1757713;80;21045;-87
2021/10/27 08:48:14;;;;;;;44.23;12.53;;;;;;;8.48;100.00;102122.74;1757998;80;21861;-85
2021/10/27 08:50:44;;;;;;;51.08;32.93;;;;;;;8.59;100.00;102127.48;1751584;81;20950;-85
2021/10/27 08:53:17;;;;;;;59.40;20.55;;;;;;;8.67;100.00;102124.09;1778731;80;21065;-86
2021/10/27 08:55:48;;;;;;;38.73;15.00;;;;;;;8.75;100.00;102128.98;1784409;79;20998;-86
2021/10/27 08:58:22;;;;;;;27.13;14.55;;;;;;;8.80;100.00;102124.41;1739675;79;21070;-86
2021/10/27 09:03:41;;;;;;;18.60;12.33;;;;;;;8.93;100.00;102113.03;1786725;78;21075;-86
2021/10/27 09:06:05;;;;;;;19.25;12.23;;;;;;;8.94;100.00;102110.83;1759780;80;21006;-85
2021/10/27 09:08:46;;;;;;;27.52;13.43;;;;;;;8.90;100.00;102107.96;1755440;80;21048;-87
2021/10/27 09:55:36;;;;;;;;;;;;;;;;;;;;;
2021/10/27 09:56:24;;;;;;;15.93;10.32;;;;;;;9.20;100.00;102069.83;1790732;80;21803;-86
2021/10/27 10:06:49;;;;;;;15.78;11.38;;;;;;;9.41;100.00;102045.89;1804073;79;20998;-85
2021/10/27 10:09:18;;;;;;;18.05;11.45;;;;;;;9.39;99.07;102039.06;1819528;78;21841;-86
2021/10/27 10:11:48;;;;;;;31.77;13.83;;;;;;;9.35;100.00;102038.83;1826071;78;21076;-85
2021/10/27 10:14:17;;;;;;;22.10;11.53;;;;;;;9.31;100.00;102035.53;1772289;80;21039;-85
2021/10/27 10:16:50;;;;;;;20.27;12.35;;;;;;;9.37;100.00;102034.41;1755310;81;21005;-86
2021/10/27 10:19:23;;;;;;;20.77;12.98;;;;;;;9.44;100.00;102024.92;1751944;80;21021;-86
2021/10/27 10:21:52;;;;;;;25.30;13.35;;;;;;;9.53;100.00;102016.30;1752199;81;21165;-85
2021/10/27 10:24:28;;;;;;;26.93;14.58;;;;;;;9.60;99.02;102015.09;1755348;80;21091;-86
2021/10/27 10:26:55;;;;;;;19.95;12.88;;;;;;;9.68;100.00;102006.45;1727534;81;21060;-85
2021/10/27 10:29:44;;;;;;;26.42;13.55;;;;;;;9.75;96.05;102005.23;1755417;81;21558;-85
2021/10/27 10:32:28;;;;;;;64.72;15.40;;;;;;;9.81;97.80;102001.96;1751170;81;21539;-85
2021/10/27 10:35:10;;;;;;;27.98;11.85;;;;;;;9.87;100.00;101993.84;1750175;80;21167;-85
2021/10/27 10:55:42;;;;;;;37.80;12.80;;;;;;;10.04;92.94;101978.66;1789249;80;21019;-84
2021/10/27 11:22:17;;;;;;;31.20;11.88;;;;;;;10.13;75.14;101952.17;1784417;80;21078;-86
2021/10/27 11:40:10;;;;;;;24.35;10.65;;;;;;;9.89;84.20;101940.80;1765479;81;21601;-84
2021/10/27 11:42:47;;;;;;;16.52;10.25;;;;;;;9.91;87.95;101929.86;1768646;81;21043;-83
2021/10/27 11:48:02;;;;;;;20.35;11.40;;;;;;;9.99;77.38;101924.72;1768841;81;21546;-87
2021/10/27 11:50:41;;;;;;;22.70;10.98;;;;;;;10.00;76.95;101923.33;1768542;81;21067;-84
2021/10/27 11:53:30;;;;;;;71.82;13.62;;;;;;;10.02;80.87;101928.45;1765964;81;21108;-84
2021/10/27 11:56:19;;;;;;;33.13;11.55;;;;;;;10.00;71.70;101925.94;1761938;80;21028;-84
2021/10/27 11:58:54;;;;;;;30.15;10.50;;;;;;;9.99;80.88;101920.34;1787982;79;21748;-84
2021/10/27 12:01:30;;;;;;;22.95;10.00;;;;;;;10.01;83.73;101917.21;1806554;78;20982;-83
2021/10/27 12:04:09;;;;;;;19.62;8.93;;;;;;;10.02;81.98;101911.53;1785678;79;21013;-84
2021/10/27 12:06:44;;;;;;;;;;;;;;;10.04;81.95;101920.97;1770488;81;21062;-83
2021/10/27 12:09:31;;;;;;;37.98;9.63;;;;;;;10.06;79.37;101915.67;1764895;79;20184;-84
2021/10/27 12:17:58;;;;;;;91.40;14.13;;;;;;;10.07;81.21;101903.05;1785542;79;21080;-85
2021/10/27 12:20:11;;;;;;;36.10;10.78;;;;;;;10.06;86.36;101903.48;1805064;78;20998;-83
2021/10/27 12:22:38;;;;;;;26.25;9.50;;;;;;;10.09;96.41;101908.55;1798915;78;21002;-87
2021/10/27 12:25:07;;;;;;;23.65;10.38;;;;;;;10.09;84.49;101896.83;1770167;79;21134;-86
2021/10/27 12:27:42;;;;;;;18.92;9.85;;;;;;;10.09;88.23;101900.73;1785984;79;21431;-86
2021/10/27 12:30:11;;;;;;;19.90;9.93;;;;;;;10.10;91.75;101899.81;1787383;79;21540;-85
2021/10/27 12:32:54;;;;;;;23.62;10.75;;;;;;;10.10;80.58;101897.22;1775620;79;21043;-86
2021/10/27 12:35:25;;;;;;;31.50;11.40;;;;;;;10.06;81.64;101889.17;1765389;80;21027;-84
2021/10/27 12:38:17;;;;;;;40.00;11.25;;;;;;;10.06;87.77;101887.05;1797633;79;21170;-85
2021/10/27 12:40:45;;;;;;;18.67;9.78;;;;;;;10.05;93.64;101887.52;1810409;79;21044;-83
2021/10/27 12:43:19;;;;;;;30.88;10.78;;;;;;;10.05;88.45;101884.06;1798269;79;21060;-86
2021/10/27 12:45:54;;;;;;;21.52;9.68;;;;;;;10.01;81.96;101885.16;1783179;79;21022;-85
2021/10/27 12:48:27;;;;;;;27.85;10.58;;;;;;;10.00;86.23;101883.47;1776403;79;21036;-85
2021/10/27 12:51:09;;;;;;;67.42;13.43;;;;;;;9.99;91.55;101886.52;1780104;79;21171;-86
2021/10/27 12:53:44;;;;;;;94.62;14.80;;;;;;;9.98;94.06;101880.10;1759065;79;21029;-86
2021/10/27 12:56:24;;;;;;;88.85;13.35;;;;;;;9.97;94.30;101875.81;1815819;78;21049;-86
2021/10/27 13:01:43;;;;;;;23.12;11.30;;;;;;;9.95;97.51;101875.91;1778229;80;20998;-86
2021/10/27 13:05:15;;;;;;;83.52;14.43;;;;;;;9.94;90.25;101866.41;1770606;80;21172;-86
2021/10/27 13:07:02;;;;;;;61.83;12.90;;;;;;;9.90;98.00;101863.13;1749642;80;21061;-86
2021/10/27 13:09:36;;;;;;;38.90;10.65;;;;;;;9.90;100.00;101866.17;1763209;80;21582;-86
2021/10/27 13:15:06;;;;;;;44.80;10.97;;;;;;;9.86;97.32;101865.97;1786864;80;20986;-86
2021/10/27 13:17:48;;;;;;;39.63;10.63;;;;;;;9.84;95.65;101869.11;1782302;80;22113;-86
2021/10/27 13:31:08;;;;;;;28.12;10.82;;;;;;;9.74;100.00;101862.25;1769775;79;21168;-86
2021/10/27 13:33:34;;;;;;;27.50;11.57;;;;;;;9.72;100.00;101858.88;1739664;79;21077;-86
2021/10/27 13:36:01;;;;;;;42.20;12.28;;;;;;;9.68;100.00;101850.39;1762906;81;21037;-85
2021/10/27 13:38:34;;;;;;;358.65;28.60;;;;;;;9.68;100.00;101847.80;1785175;79;21091;-86
2021/10/27 13:41:02;;;;;;;115.10;18.23;;;;;;;9.67;100.00;101850.48;1764820;80;21046;-85
2021/10/27 13:43:44;;;;;;;171.57;19.25;;;;;;;9.63;100.00;101849.33;1779223;79;21148;-84
2021/10/27 13:46:27;;;;;;;90.15;14.75;;;;;;;9.58;100.00;101851.77;1774541;80;21033;-84
2021/10/27 14:11:25;;;;;;;180.72;20.45;;;;;;;9.37;100.00;101853.73;1755340;80;21834;-85
2021/10/27 15:28:10;;;;;;;107.63;35.00;;;;;;;6.78;100.00;101863.83;1797006;78;21116;-89
2021/10/27 15:44:26;;;;;;;46.88;18.23;;;;;;;5.83;100.00;101867.72;1793369;78;21097;-88
2021/10/27 15:52:23;;;;;;;77.05;20.85;;;;;;;5.42;100.00;101880.31;1793395;79;21025;-89
2021/10/27 15:54:49;;;;;;;68.28;21.33;;;;;;;5.33;100.00;101881.47;1768466;78;20986;-89
2021/10/27 15:57:18;;;;;;;55.58;20.08;;;;;;;5.24;100.00;101880.05;1818237;77;21527;-89
2021/10/27 15:59:45;;;;;;;46.73;20.32;;;;;;;5.16;100.00;101883.33;1794199;78;21021;-89
2021/10/27 16:02:13;;;;;;;71.90;21.23;;;;;;;5.12;100.00;101881.72;1812581;78;21042;-88
2021/10/27 16:07:23;;;;;;;47.78;20.60;;;;;;;5.05;100.00;101879.77;1740935;80;20957;-90
2021/10/27 16:09:51;;;;;;;32.93;18.15;;;;;;;4.98;100.00;101883.01;1790480;79;21503;-88
2021/10/27 16:12:19;;;;;;;79.85;22.65;;;;;;;4.90;100.00;101883.23;1784803;80;21155;-90